sensor_id;sensor_type;location;lat;lon;timestamp;P1;durP1;ratioP1;P2;durP2;ratioP2
75129;SDS011;63703;44.716;37.846;2023-04-25T00:01:44;8.70;;;2.88;;
75129;SDS011;63703;44.716;37.846;2023-04-25T00:04:10;8.27;;;3.75;;
75129;SDS011;63703;44.716;37.846;2023-04-25T00:06:37;7.30;;;3.35;;
75129;SDS011;63703;44.716;37.846;2023-04-25T00:09:03;6.93;;;4.30;;
75129;SDS011;63703;44.716;37.846;2023-04-25T00:11:32;9.57;;;4.03;;
75129;SDS011;63703;44.716;37.846;2023-04-25T00:13:58;8.13;;;4.55;;
75129;SDS011;63703;44.716;37.846;2023-04-25T00:16:27;8.85;;;5.05;;
75129;SDS011;63703;44.716;37.846;2023-04-25T00:18:54;6.22;;;3.70;;
75129;SDS011;63703;44.716;37.846;2023-04-25T00:21:20;8.68;;;3.28;;
75129;SDS011;63703;44.716;37.846;2023-04-25T00:23:47;7.05;;;3.58;;
75129;SDS011;63703;44.716;37.846;2023-04-25T00:26:13;5.68;;;3.85;;
75129;SDS011;63703;44.716;37.846;2023-04-25T00:28:39;7.32;;;3.00;;
75129;SDS011;63703;44.716;37.846;2023-04-25T00:31:06;12.15;;;5.07;;
75129;SDS011;63703;44.716;37.846;2023-04-25T00:33:31;7.95;;;4.40;;
75129;SDS011;63703;44.716;37.846;2023-04-25T00:35:57;8.93;;;2.42;;
75129;SDS011;63703;44.716;37.846;2023-04-25T00:38:23;9.52;;;3.88;;
75129;SDS011;63703;44.716;37.846;2023-04-25T00:40:49;7.50;;;4.03;;
75129;SDS011;63703;44.716;37.846;2023-04-25T00:43:15;8.85;;;5.45;;
75129;SDS011;63703;44.716;37.846;2023-04-25T00:45:41;9.95;;;4.22;;
75129;SDS011;63703;44.716;37.846;2023-04-25T00:48:09;7.32;;;4.43;;
75129;SDS011;63703;44.716;37.846;2023-04-25T00:50:35;8.55;;;3.35;;
75129;SDS011;63703;44.716;37.846;2023-04-25T00:53:01;7.38;;;3.15;;
75129;SDS011;63703;44.716;37.846;2023-04-25T00:55:28;8.20;;;3.70;;
75129;SDS011;63703;44.716;37.846;2023-04-25T00:57:56;10.43;;;4.05;;
75129;SDS011;63703;44.716;37.846;2023-04-25T01:00:23;9.65;;;3.63;;
75129;SDS011;63703;44.716;37.846;2023-04-25T01:02:49;10.82;;;4.07;;
75129;SDS011;63703;44.716;37.846;2023-04-25T01:05:15;6.68;;;3.30;;
75129;SDS011;63703;44.716;37.846;2023-04-25T01:07:41;8.63;;;4.63;;
75129;SDS011;63703;44.716;37.846;2023-04-25T01:10:07;8.20;;;4.47;;
75129;SDS011;63703;44.716;37.846;2023-04-25T01:12:33;7.78;;;4.43;;
75129;SDS011;63703;44.716;37.846;2023-04-25T01:15:00;8.18;;;3.80;;
75129;SDS011;63703;44.716;37.846;2023-04-25T01:17:26;10.88;;;3.97;;
75129;SDS011;63703;44.716;37.846;2023-04-25T01:19:54;12.10;;;4.53;;
75129;SDS011;63703;44.716;37.846;2023-04-25T01:22:20;9.25;;;4.15;;
75129;SDS011;63703;44.716;37.846;2023-04-25T01:24:47;9.85;;;4.85;;
75129;SDS011;63703;44.716;37.846;2023-04-25T01:27:13;13.00;;;7.90;;
75129;SDS011;63703;44.716;37.846;2023-04-25T01:29:39;8.25;;;3.40;;
75129;SDS011;63703;44.716;37.846;2023-04-25T01:32:05;5.18;;;2.60;;
75129;SDS011;63703;44.716;37.846;2023-04-25T01:34:32;4.35;;;2.42;;
75129;SDS011;63703;44.716;37.846;2023-04-25T01:36:59;6.22;;;3.40;;
75129;SDS011;63703;44.716;37.846;2023-04-25T01:39:27;4.93;;;2.22;;
75129;SDS011;63703;44.716;37.846;2023-04-25T01:41:53;4.28;;;2.63;;
75129;SDS011;63703;44.716;37.846;2023-04-25T01:44:20;8.43;;;2.28;;
75129;SDS011;63703;44.716;37.846;2023-04-25T01:46:47;6.15;;;2.42;;
75129;SDS011;63703;44.716;37.846;2023-04-25T01:49:13;6.72;;;3.90;;
75129;SDS011;63703;44.716;37.846;2023-04-25T01:51:41;6.30;;;2.45;;
75129;SDS011;63703;44.716;37.846;2023-04-25T01:54:07;9.15;;;3.00;;
75129;SDS011;63703;44.716;37.846;2023-04-25T01:56:36;7.03;;;4.15;;
75129;SDS011;63703;44.716;37.846;2023-04-25T01:59:05;8.13;;;4.45;;
75129;SDS011;63703;44.716;37.846;2023-04-25T02:01:31;9.63;;;5.43;;
75129;SDS011;63703;44.716;37.846;2023-04-25T02:04:11;8.10;;;4.00;;
75129;SDS011;63703;44.716;37.846;2023-04-25T02:06:39;5.15;;;3.65;;
75129;SDS011;63703;44.716;37.846;2023-04-25T02:09:06;7.65;;;3.88;;
75129;SDS011;63703;44.716;37.846;2023-04-25T02:11:32;8.88;;;4.43;;
75129;SDS011;63703;44.716;37.846;2023-04-25T02:14:26;10.02;;;4.50;;
75129;SDS011;63703;44.716;37.846;2023-04-25T02:16:59;7.97;;;5.55;;
75129;SDS011;63703;44.716;37.846;2023-04-25T02:19:25;9.02;;;5.50;;
75129;SDS011;63703;44.716;37.846;2023-04-25T02:21:51;7.85;;;3.88;;
75129;SDS011;63703;44.716;37.846;2023-04-25T02:24:17;9.63;;;4.40;;
75129;SDS011;63703;44.716;37.846;2023-04-25T02:26:42;6.97;;;3.60;;
75129;SDS011;63703;44.716;37.846;2023-04-25T02:29:09;8.25;;;3.85;;
75129;SDS011;63703;44.716;37.846;2023-04-25T02:31:35;9.35;;;3.40;;
75129;SDS011;63703;44.716;37.846;2023-04-25T02:34:01;9.15;;;5.13;;
75129;SDS011;63703;44.716;37.846;2023-04-25T02:36:27;9.60;;;5.25;;
75129;SDS011;63703;44.716;37.846;2023-04-25T02:38:55;9.80;;;4.40;;
75129;SDS011;63703;44.716;37.846;2023-04-25T02:41:21;11.00;;;4.97;;
75129;SDS011;63703;44.716;37.846;2023-04-25T02:43:47;10.15;;;5.25;;
75129;SDS011;63703;44.716;37.846;2023-04-25T02:46:13;21.58;;;7.82;;
75129;SDS011;63703;44.716;37.846;2023-04-25T02:48:39;22.23;;;8.48;;
75129;SDS011;63703;44.716;37.846;2023-04-25T02:51:05;13.13;;;5.97;;
75129;SDS011;63703;44.716;37.846;2023-04-25T02:53:31;20.60;;;9.02;;
75129;SDS011;63703;44.716;37.846;2023-04-25T02:55:57;17.30;;;8.98;;
75129;SDS011;63703;44.716;37.846;2023-04-25T02:58:24;14.35;;;8.50;;
75129;SDS011;63703;44.716;37.846;2023-04-25T03:00:52;20.80;;;8.85;;
75129;SDS011;63703;44.716;37.846;2023-04-25T03:03:18;18.73;;;7.43;;
75129;SDS011;63703;44.716;37.846;2023-04-25T03:05:50;11.10;;;5.53;;
75129;SDS011;63703;44.716;37.846;2023-04-25T03:08:21;10.15;;;4.82;;
75129;SDS011;63703;44.716;37.846;2023-04-25T03:10:48;14.40;;;6.05;;
75129;SDS011;63703;44.716;37.846;2023-04-25T03:13:16;11.57;;;7.25;;
75129;SDS011;63703;44.716;37.846;2023-04-25T03:15:43;13.40;;;7.43;;
75129;SDS011;63703;44.716;37.846;2023-04-25T03:18:09;12.82;;;7.55;;
75129;SDS011;63703;44.716;37.846;2023-04-25T03:20:35;10.85;;;6.70;;
75129;SDS011;63703;44.716;37.846;2023-04-25T03:23:02;10.70;;;5.28;;
75129;SDS011;63703;44.716;37.846;2023-04-25T03:25:29;12.30;;;7.28;;
75129;SDS011;63703;44.716;37.846;2023-04-25T03:27:55;12.82;;;8.98;;
75129;SDS011;63703;44.716;37.846;2023-04-25T03:30:21;12.10;;;8.15;;
75129;SDS011;63703;44.716;37.846;2023-04-25T03:32:47;12.88;;;8.40;;
75129;SDS011;63703;44.716;37.846;2023-04-25T03:35:16;13.77;;;7.00;;
75129;SDS011;63703;44.716;37.846;2023-04-25T03:37:42;10.30;;;6.75;;
75129;SDS011;63703;44.716;37.846;2023-04-25T03:40:14;15.48;;;7.93;;
75129;SDS011;63703;44.716;37.846;2023-04-25T03:42:58;9.82;;;7.05;;
75129;SDS011;63703;44.716;37.846;2023-04-25T03:45:24;12.73;;;7.45;;
75129;SDS011;63703;44.716;37.846;2023-04-25T03:47:51;13.52;;;5.13;;
75129;SDS011;63703;44.716;37.846;2023-04-25T03:50:17;9.27;;;4.22;;
75129;SDS011;63703;44.716;37.846;2023-04-25T03:52:43;10.93;;;5.03;;
75129;SDS011;63703;44.716;37.846;2023-04-25T03:55:09;10.75;;;4.38;;
75129;SDS011;63703;44.716;37.846;2023-04-25T03:57:36;13.32;;;6.82;;
75129;SDS011;63703;44.716;37.846;2023-04-25T04:00:03;9.27;;;4.50;;
75129;SDS011;63703;44.716;37.846;2023-04-25T04:02:38;12.85;;;5.65;;
75129;SDS011;63703;44.716;37.846;2023-04-25T04:05:05;10.18;;;5.70;;
75129;SDS011;63703;44.716;37.846;2023-04-25T04:07:35;7.35;;;4.97;;
75129;SDS011;63703;44.716;37.846;2023-04-25T04:12:36;10.55;;;3.58;;
75129;SDS011;63703;44.716;37.846;2023-04-25T04:15:03;12.77;;;4.00;;
75129;SDS011;63703;44.716;37.846;2023-04-25T04:17:30;6.82;;;3.75;;
75129;SDS011;63703;44.716;37.846;2023-04-25T04:19:57;7.13;;;3.75;;
75129;SDS011;63703;44.716;37.846;2023-04-25T04:22:23;9.63;;;4.20;;
75129;SDS011;63703;44.716;37.846;2023-04-25T04:24:52;5.75;;;3.97;;
75129;SDS011;63703;44.716;37.846;2023-04-25T04:27:42;6.72;;;3.45;;
75129;SDS011;63703;44.716;37.846;2023-04-25T04:30:35;9.75;;;4.13;;
75129;SDS011;63703;44.716;37.846;2023-04-25T04:33:06;7.93;;;4.32;;
75129;SDS011;63703;44.716;37.846;2023-04-25T04:35:33;10.68;;;7.20;;
75129;SDS011;63703;44.716;37.846;2023-04-25T04:37:59;14.52;;;8.63;;
75129;SDS011;63703;44.716;37.846;2023-04-25T04:40:30;16.60;;;9.02;;
75129;SDS011;63703;44.716;37.846;2023-04-25T04:43:19;16.27;;;7.88;;
75129;SDS011;63703;44.716;37.846;2023-04-25T04:46:05;15.40;;;8.57;;
75129;SDS011;63703;44.716;37.846;2023-04-25T04:48:53;15.35;;;7.47;;
75129;SDS011;63703;44.716;37.846;2023-04-25T04:51:48;12.38;;;7.72;;
75129;SDS011;63703;44.716;37.846;2023-04-25T04:54:33;16.52;;;9.38;;
75129;SDS011;63703;44.716;37.846;2023-04-25T04:57:13;17.27;;;8.38;;
75129;SDS011;63703;44.716;37.846;2023-04-25T05:00:09;13.50;;;6.43;;
75129;SDS011;63703;44.716;37.846;2023-04-25T05:02:55;14.55;;;6.30;;
75129;SDS011;63703;44.716;37.846;2023-04-25T05:05:40;13.30;;;6.88;;
75129;SDS011;63703;44.716;37.846;2023-04-25T05:08:29;12.15;;;6.45;;
75129;SDS011;63703;44.716;37.846;2023-04-25T05:11:12;15.13;;;6.85;;
75129;SDS011;63703;44.716;37.846;2023-04-25T05:13:55;20.40;;;8.93;;
75129;SDS011;63703;44.716;37.846;2023-04-25T05:16:40;9.25;;;4.95;;
75129;SDS011;63703;44.716;37.846;2023-04-25T05:19:28;14.70;;;6.45;;
75129;SDS011;63703;44.716;37.846;2023-04-25T05:22:14;11.15;;;6.05;;
75129;SDS011;63703;44.716;37.846;2023-04-25T05:24:54;15.60;;;7.97;;
75129;SDS011;63703;44.716;37.846;2023-04-25T05:27:49;14.40;;;7.85;;
75129;SDS011;63703;44.716;37.846;2023-04-25T05:30:41;16.23;;;9.38;;
75129;SDS011;63703;44.716;37.846;2023-04-25T05:33:15;15.88;;;7.10;;
75129;SDS011;63703;44.716;37.846;2023-04-25T05:35:42;16.63;;;8.15;;
75129;SDS011;63703;44.716;37.846;2023-04-25T05:38:10;10.43;;;6.15;;
75129;SDS011;63703;44.716;37.846;2023-04-25T05:41:14;17.17;;;7.03;;
75129;SDS011;63703;44.716;37.846;2023-04-25T05:43:43;17.30;;;6.95;;
75129;SDS011;63703;44.716;37.846;2023-04-25T05:46:28;18.05;;;7.53;;
75129;SDS011;63703;44.716;37.846;2023-04-25T05:49:13;13.88;;;6.30;;
75129;SDS011;63703;44.716;37.846;2023-04-25T05:51:56;10.50;;;5.85;;
75129;SDS011;63703;44.716;37.846;2023-04-25T05:54:48;12.90;;;6.40;;
75129;SDS011;63703;44.716;37.846;2023-04-25T05:57:24;11.95;;;8.40;;
75129;SDS011;63703;44.716;37.846;2023-04-25T05:59:53;16.27;;;7.72;;
75129;SDS011;63703;44.716;37.846;2023-04-25T06:02:20;11.65;;;6.20;;
75129;SDS011;63703;44.716;37.846;2023-04-25T06:04:51;11.07;;;6.88;;
75129;SDS011;63703;44.716;37.846;2023-04-25T06:07:17;10.63;;;5.72;;
75129;SDS011;63703;44.716;37.846;2023-04-25T06:09:44;11.10;;;6.38;;
75129;SDS011;63703;44.716;37.846;2023-04-25T06:12:10;10.27;;;5.80;;
75129;SDS011;63703;44.716;37.846;2023-04-25T06:14:36;12.27;;;5.82;;
75129;SDS011;63703;44.716;37.846;2023-04-25T06:17:03;12.90;;;6.05;;
75129;SDS011;63703;44.716;37.846;2023-04-25T06:19:33;14.82;;;5.55;;
75129;SDS011;63703;44.716;37.846;2023-04-25T06:22:03;12.20;;;6.55;;
75129;SDS011;63703;44.716;37.846;2023-04-25T06:24:33;8.73;;;4.80;;
75129;SDS011;63703;44.716;37.846;2023-04-25T06:27:02;6.63;;;4.18;;
75129;SDS011;63703;44.716;37.846;2023-04-25T06:29:28;11.05;;;4.15;;
75129;SDS011;63703;44.716;37.846;2023-04-25T06:31:54;12.98;;;4.15;;
75129;SDS011;63703;44.716;37.846;2023-04-25T06:34:21;10.30;;;7.20;;
75129;SDS011;63703;44.716;37.846;2023-04-25T06:36:47;7.47;;;4.28;;
75129;SDS011;63703;44.716;37.846;2023-04-25T06:39:14;8.35;;;4.88;;
75129;SDS011;63703;44.716;37.846;2023-04-25T06:41:41;8.35;;;4.57;;
75129;SDS011;63703;44.716;37.846;2023-04-25T06:44:14;6.95;;;3.67;;
75129;SDS011;63703;44.716;37.846;2023-04-25T06:46:50;12.07;;;7.80;;
75129;SDS011;63703;44.716;37.846;2023-04-25T06:49:16;12.23;;;4.60;;
75129;SDS011;63703;44.716;37.846;2023-04-25T06:51:42;11.82;;;5.28;;
75129;SDS011;63703;44.716;37.846;2023-04-25T06:54:08;13.73;;;5.53;;
75129;SDS011;63703;44.716;37.846;2023-04-25T06:56:41;8.98;;;4.65;;
75129;SDS011;63703;44.716;37.846;2023-04-25T06:59:12;9.60;;;5.43;;
75129;SDS011;63703;44.716;37.846;2023-04-25T07:01:39;9.32;;;3.97;;
75129;SDS011;63703;44.716;37.846;2023-04-25T07:04:12;10.05;;;5.68;;
75129;SDS011;63703;44.716;37.846;2023-04-25T07:06:44;12.95;;;5.10;;
75129;SDS011;63703;44.716;37.846;2023-04-25T07:09:12;11.68;;;3.65;;
75129;SDS011;63703;44.716;37.846;2023-04-25T07:11:40;12.55;;;3.65;;
75129;SDS011;63703;44.716;37.846;2023-04-25T07:14:06;11.70;;;5.00;;
75129;SDS011;63703;44.716;37.846;2023-04-25T07:16:32;7.97;;;4.65;;
75129;SDS011;63703;44.716;37.846;2023-04-25T07:18:58;10.43;;;4.18;;
75129;SDS011;63703;44.716;37.846;2023-04-25T07:21:25;12.07;;;4.05;;
75129;SDS011;63703;44.716;37.846;2023-04-25T07:23:52;13.15;;;4.18;;
75129;SDS011;63703;44.716;37.846;2023-04-25T07:26:23;8.45;;;3.33;;
75129;SDS011;63703;44.716;37.846;2023-04-25T07:29:09;9.15;;;4.40;;
75129;SDS011;63703;44.716;37.846;2023-04-25T07:31:35;9.90;;;4.80;;
75129;SDS011;63703;44.716;37.846;2023-04-25T07:34:01;8.45;;;4.28;;
75129;SDS011;63703;44.716;37.846;2023-04-25T07:36:28;8.15;;;3.45;;
75129;SDS011;63703;44.716;37.846;2023-04-25T07:38:54;12.07;;;4.47;;
75129;SDS011;63703;44.716;37.846;2023-04-25T07:41:20;11.73;;;4.45;;
75129;SDS011;63703;44.716;37.846;2023-04-25T07:43:46;11.18;;;4.50;;
75129;SDS011;63703;44.716;37.846;2023-04-25T07:46:12;10.63;;;4.10;;
75129;SDS011;63703;44.716;37.846;2023-04-25T07:48:38;7.18;;;2.65;;
75129;SDS011;63703;44.716;37.846;2023-04-25T07:51:04;8.45;;;5.38;;
75129;SDS011;63703;44.716;37.846;2023-04-25T07:53:31;10.60;;;4.60;;
75129;SDS011;63703;44.716;37.846;2023-04-25T07:56:03;9.40;;;4.78;;
75129;SDS011;63703;44.716;37.846;2023-04-25T07:58:32;8.63;;;4.22;;
75129;SDS011;63703;44.716;37.846;2023-04-25T08:01:01;12.63;;;4.32;;
75129;SDS011;63703;44.716;37.846;2023-04-25T08:03:43;8.70;;;3.25;;
75129;SDS011;63703;44.716;37.846;2023-04-25T08:06:21;10.82;;;4.40;;
75129;SDS011;63703;44.716;37.846;2023-04-25T08:08:56;11.65;;;5.20;;
75129;SDS011;63703;44.716;37.846;2023-04-25T08:11:29;10.02;;;4.80;;
75129;SDS011;63703;44.716;37.846;2023-04-25T08:13:55;11.32;;;3.95;;
75129;SDS011;63703;44.716;37.846;2023-04-25T08:16:21;6.45;;;3.53;;
75129;SDS011;63703;44.716;37.846;2023-04-25T08:18:47;12.13;;;5.10;;
75129;SDS011;63703;44.716;37.846;2023-04-25T08:21:15;7.68;;;3.55;;
75129;SDS011;63703;44.716;37.846;2023-04-25T08:23:42;9.15;;;4.32;;
75129;SDS011;63703;44.716;37.846;2023-04-25T08:26:18;10.55;;;3.83;;
75129;SDS011;63703;44.716;37.846;2023-04-25T08:28:44;5.90;;;2.70;;
75129;SDS011;63703;44.716;37.846;2023-04-25T08:31:09;12.23;;;5.57;;
75129;SDS011;63703;44.716;37.846;2023-04-25T08:33:48;13.02;;;3.35;;
75129;SDS011;63703;44.716;37.846;2023-04-25T08:36:22;7.85;;;3.38;;
75129;SDS011;63703;44.716;37.846;2023-04-25T08:38:49;8.05;;;3.75;;
75129;SDS011;63703;44.716;37.846;2023-04-25T08:41:18;8.98;;;4.13;;
75129;SDS011;63703;44.716;37.846;2023-04-25T08:43:47;8.25;;;4.57;;
75129;SDS011;63703;44.716;37.846;2023-04-25T08:46:15;10.25;;;4.22;;
75129;SDS011;63703;44.716;37.846;2023-04-25T08:49:22;7.75;;;3.58;;
75129;SDS011;63703;44.716;37.846;2023-04-25T08:51:49;12.65;;;3.50;;
75129;SDS011;63703;44.716;37.846;2023-04-25T08:54:20;9.65;;;5.50;;
75129;SDS011;63703;44.716;37.846;2023-04-25T08:56:51;11.38;;;3.60;;
75129;SDS011;63703;44.716;37.846;2023-04-25T08:59:17;10.70;;;2.92;;
75129;SDS011;63703;44.716;37.846;2023-04-25T09:01:44;10.30;;;3.95;;
75129;SDS011;63703;44.716;37.846;2023-04-25T09:04:11;11.45;;;4.63;;
75129;SDS011;63703;44.716;37.846;2023-04-25T09:06:39;7.65;;;3.95;;
75129;SDS011;63703;44.716;37.846;2023-04-25T09:09:06;6.95;;;2.75;;
75129;SDS011;63703;44.716;37.846;2023-04-25T09:11:34;6.53;;;3.40;;
75129;SDS011;63703;44.716;37.846;2023-04-25T09:14:14;12.57;;;2.15;;
75129;SDS011;63703;44.716;37.846;2023-04-25T09:19:48;6.35;;;2.05;;
75129;SDS011;63703;44.716;37.846;2023-04-25T09:22:26;11.82;;;3.50;;
75129;SDS011;63703;44.716;37.846;2023-04-25T09:24:52;8.55;;;2.50;;
75129;SDS011;63703;44.716;37.846;2023-04-25T09:27:21;11.70;;;2.45;;
75129;SDS011;63703;44.716;37.846;2023-04-25T09:29:58;8.73;;;4.45;;
75129;SDS011;63703;44.716;37.846;2023-04-25T09:32:36;8.57;;;3.28;;
75129;SDS011;63703;44.716;37.846;2023-04-25T09:35:03;8.45;;;3.00;;
75129;SDS011;63703;44.716;37.846;2023-04-25T09:37:30;6.90;;;2.53;;
75129;SDS011;63703;44.716;37.846;2023-04-25T09:40:05;8.23;;;2.78;;
75129;SDS011;63703;44.716;37.846;2023-04-25T09:42:41;9.82;;;3.58;;
75129;SDS011;63703;44.716;37.846;2023-04-25T09:45:07;6.10;;;2.53;;
75129;SDS011;63703;44.716;37.846;2023-04-25T09:47:39;8.13;;;2.70;;
75129;SDS011;63703;44.716;37.846;2023-04-25T09:50:14;7.53;;;2.15;;
75129;SDS011;63703;44.716;37.846;2023-04-25T09:52:43;7.82;;;2.90;;
75129;SDS011;63703;44.716;37.846;2023-04-25T09:55:17;6.50;;;2.80;;
75129;SDS011;63703;44.716;37.846;2023-04-25T09:57:44;13.43;;;2.80;;
75129;SDS011;63703;44.716;37.846;2023-04-25T10:00:14;10.30;;;3.00;;
75129;SDS011;63703;44.716;37.846;2023-04-25T10:02:40;9.55;;;2.60;;
75129;SDS011;63703;44.716;37.846;2023-04-25T10:05:13;6.18;;;1.90;;
75129;SDS011;63703;44.716;37.846;2023-04-25T10:07:40;9.80;;;2.90;;
75129;SDS011;63703;44.716;37.846;2023-04-25T10:10:14;11.50;;;4.28;;
75129;SDS011;63703;44.716;37.846;2023-04-25T10:12:40;8.75;;;3.10;;
75129;SDS011;63703;44.716;37.846;2023-04-25T10:15:09;7.47;;;3.33;;
75129;SDS011;63703;44.716;37.846;2023-04-25T10:17:36;8.68;;;2.22;;
75129;SDS011;63703;44.716;37.846;2023-04-25T10:20:02;8.70;;;2.60;;
75129;SDS011;63703;44.716;37.846;2023-04-25T10:22:37;7.20;;;2.20;;
75129;SDS011;63703;44.716;37.846;2023-04-25T10:25:06;8.38;;;2.65;;
75129;SDS011;63703;44.716;37.846;2023-04-25T10:27:33;6.07;;;2.15;;
75129;SDS011;63703;44.716;37.846;2023-04-25T10:30:00;5.00;;;2.33;;
75129;SDS011;63703;44.716;37.846;2023-04-25T10:32:31;8.95;;;2.15;;
75129;SDS011;63703;44.716;37.846;2023-04-25T10:35:04;6.50;;;3.28;;
75129;SDS011;63703;44.716;37.846;2023-04-25T10:37:56;10.38;;;2.10;;
75129;SDS011;63703;44.716;37.846;2023-04-25T10:40:25;7.75;;;3.17;;
75129;SDS011;63703;44.716;37.846;2023-04-25T10:42:52;8.30;;;2.13;;
75129;SDS011;63703;44.716;37.846;2023-04-25T10:45:19;6.07;;;2.55;;
75129;SDS011;63703;44.716;37.846;2023-04-25T10:47:46;8.80;;;2.47;;
75129;SDS011;63703;44.716;37.846;2023-04-25T10:50:12;7.38;;;2.67;;
75129;SDS011;63703;44.716;37.846;2023-04-25T10:52:41;8.77;;;2.90;;
75129;SDS011;63703;44.716;37.846;2023-04-25T10:55:08;13.52;;;2.63;;
75129;SDS011;63703;44.716;37.846;2023-04-25T10:57:44;7.28;;;2.60;;
75129;SDS011;63703;44.716;37.846;2023-04-25T11:00:16;7.47;;;2.65;;
75129;SDS011;63703;44.716;37.846;2023-04-25T11:02:44;8.55;;;3.33;;
75129;SDS011;63703;44.716;37.846;2023-04-25T11:05:22;11.75;;;3.00;;
75129;SDS011;63703;44.716;37.846;2023-04-25T11:07:56;7.22;;;2.72;;
75129;SDS011;63703;44.716;37.846;2023-04-25T11:10:27;8.18;;;3.30;;
75129;SDS011;63703;44.716;37.846;2023-04-25T11:12:54;8.95;;;2.80;;
75129;SDS011;63703;44.716;37.846;2023-04-25T11:15:20;10.05;;;2.28;;
75129;SDS011;63703;44.716;37.846;2023-04-25T11:17:46;10.88;;;4.00;;
75129;SDS011;63703;44.716;37.846;2023-04-25T11:20:13;8.73;;;2.88;;
75129;SDS011;63703;44.716;37.846;2023-04-25T11:22:41;9.35;;;2.78;;
75129;SDS011;63703;44.716;37.846;2023-04-25T11:25:09;7.32;;;2.85;;
75129;SDS011;63703;44.716;37.846;2023-04-25T11:27:38;7.47;;;2.80;;
75129;SDS011;63703;44.716;37.846;2023-04-25T11:30:15;8.48;;;2.38;;
75129;SDS011;63703;44.716;37.846;2023-04-25T11:32:42;9.65;;;3.20;;
75129;SDS011;63703;44.716;37.846;2023-04-25T11:35:08;9.63;;;2.83;;
75129;SDS011;63703;44.716;37.846;2023-04-25T11:37:35;5.72;;;3.10;;
75129;SDS011;63703;44.716;37.846;2023-04-25T11:40:04;12.95;;;4.45;;
75129;SDS011;63703;44.716;37.846;2023-04-25T11:42:32;6.88;;;3.00;;
75129;SDS011;63703;44.716;37.846;2023-04-25T11:44:59;8.82;;;3.38;;
75129;SDS011;63703;44.716;37.846;2023-04-25T11:47:31;6.35;;;2.22;;
75129;SDS011;63703;44.716;37.846;2023-04-25T11:50:02;5.30;;;2.00;;
75129;SDS011;63703;44.716;37.846;2023-04-25T11:52:35;9.32;;;3.10;;
75129;SDS011;63703;44.716;37.846;2023-04-25T11:55:03;9.68;;;4.05;;
75129;SDS011;63703;44.716;37.846;2023-04-25T11:57:32;7.93;;;2.60;;
75129;SDS011;63703;44.716;37.846;2023-04-25T12:00:08;6.63;;;2.55;;
75129;SDS011;63703;44.716;37.846;2023-04-25T12:02:41;8.88;;;2.97;;
75129;SDS011;63703;44.716;37.846;2023-04-25T12:05:09;7.97;;;2.97;;
75129;SDS011;63703;44.716;37.846;2023-04-25T12:07:37;8.68;;;3.33;;
75129;SDS011;63703;44.716;37.846;2023-04-25T12:10:04;9.60;;;2.45;;
75129;SDS011;63703;44.716;37.846;2023-04-25T12:17:38;8.20;;;2.33;;
75129;SDS011;63703;44.716;37.846;2023-04-25T12:20:11;9.32;;;2.05;;
75129;SDS011;63703;44.716;37.846;2023-04-25T12:22:45;6.53;;;3.35;;
75129;SDS011;63703;44.716;37.846;2023-04-25T12:25:33;5.50;;;2.25;;
75129;SDS011;63703;44.716;37.846;2023-04-25T12:28:09;7.68;;;2.38;;
75129;SDS011;63703;44.716;37.846;2023-04-25T12:30:54;8.65;;;2.45;;
75129;SDS011;63703;44.716;37.846;2023-04-25T12:33:25;8.48;;;1.95;;
75129;SDS011;63703;44.716;37.846;2023-04-25T12:35:52;7.60;;;2.55;;
75129;SDS011;63703;44.716;37.846;2023-04-25T12:38:23;10.98;;;2.22;;
75129;SDS011;63703;44.716;37.846;2023-04-25T12:40:50;9.20;;;2.65;;
75129;SDS011;63703;44.716;37.846;2023-04-25T12:43:17;9.43;;;2.22;;
75129;SDS011;63703;44.716;37.846;2023-04-25T12:45:44;4.75;;;2.25;;
75129;SDS011;63703;44.716;37.846;2023-04-25T12:48:10;6.38;;;2.60;;
75129;SDS011;63703;44.716;37.846;2023-04-25T12:50:36;5.18;;;2.40;;
75129;SDS011;63703;44.716;37.846;2023-04-25T12:53:02;9.00;;;3.38;;
75129;SDS011;63703;44.716;37.846;2023-04-25T12:55:28;8.77;;;2.45;;
75129;SDS011;63703;44.716;37.846;2023-04-25T12:57:55;6.65;;;2.65;;
75129;SDS011;63703;44.716;37.846;2023-04-25T13:00:20;9.05;;;2.45;;
75129;SDS011;63703;44.716;37.846;2023-04-25T13:02:46;4.57;;;1.80;;
75129;SDS011;63703;44.716;37.846;2023-04-25T13:05:12;7.35;;;1.95;;
75129;SDS011;63703;44.716;37.846;2023-04-25T13:07:38;11.30;;;3.47;;
75129;SDS011;63703;44.716;37.846;2023-04-25T13:10:05;4.80;;;1.77;;
75129;SDS011;63703;44.716;37.846;2023-04-25T13:12:31;8.18;;;2.83;;
75129;SDS011;63703;44.716;37.846;2023-04-25T13:14:57;8.07;;;2.58;;
75129;SDS011;63703;44.716;37.846;2023-04-25T13:17:23;6.10;;;2.33;;
75129;SDS011;63703;44.716;37.846;2023-04-25T13:19:49;13.20;;;4.43;;
75129;SDS011;63703;44.716;37.846;2023-04-25T13:22:16;9.80;;;2.28;;
75129;SDS011;63703;44.716;37.846;2023-04-25T13:24:45;5.45;;;2.47;;
75129;SDS011;63703;44.716;37.846;2023-04-25T13:27:12;5.90;;;1.75;;
75129;SDS011;63703;44.716;37.846;2023-04-25T13:29:38;8.63;;;2.63;;
75129;SDS011;63703;44.716;37.846;2023-04-25T13:32:06;7.90;;;2.22;;
75129;SDS011;63703;44.716;37.846;2023-04-25T13:34:32;11.00;;;2.38;;
75129;SDS011;63703;44.716;37.846;2023-04-25T13:36:58;7.40;;;1.77;;
75129;SDS011;63703;44.716;37.846;2023-04-25T13:39:24;9.45;;;2.88;;
75129;SDS011;63703;44.716;37.846;2023-04-25T13:41:50;8.48;;;2.72;;
75129;SDS011;63703;44.716;37.846;2023-04-25T13:44:16;4.10;;;1.65;;
75129;SDS011;63703;44.716;37.846;2023-04-25T13:46:42;10.23;;;1.60;;
75129;SDS011;63703;44.716;37.846;2023-04-25T13:49:07;12.30;;;2.15;;
75129;SDS011;63703;44.716;37.846;2023-04-25T13:51:34;9.50;;;2.85;;
75129;SDS011;63703;44.716;37.846;2023-04-25T13:54:00;5.30;;;2.10;;
75129;SDS011;63703;44.716;37.846;2023-04-25T13:56:26;7.40;;;2.65;;
75129;SDS011;63703;44.716;37.846;2023-04-25T13:58:52;6.05;;;2.65;;
75129;SDS011;63703;44.716;37.846;2023-04-25T14:01:18;6.75;;;2.70;;
75129;SDS011;63703;44.716;37.846;2023-04-25T14:03:46;6.95;;;2.13;;
75129;SDS011;63703;44.716;37.846;2023-04-25T14:06:12;6.90;;;3.08;;
75129;SDS011;63703;44.716;37.846;2023-04-25T14:08:38;6.90;;;1.80;;
75129;SDS011;63703;44.716;37.846;2023-04-25T14:11:04;6.10;;;1.95;;
75129;SDS011;63703;44.716;37.846;2023-04-25T14:13:30;8.68;;;1.65;;
75129;SDS011;63703;44.716;37.846;2023-04-25T14:15:56;7.40;;;2.13;;
75129;SDS011;63703;44.716;37.846;2023-04-25T14:20:48;10.77;;;2.55;;
75129;SDS011;63703;44.716;37.846;2023-04-25T14:23:14;5.63;;;1.75;;
75129;SDS011;63703;44.716;37.846;2023-04-25T14:25:40;5.75;;;2.50;;
75129;SDS011;63703;44.716;37.846;2023-04-25T14:28:07;8.50;;;2.20;;
75129;SDS011;63703;44.716;37.846;2023-04-25T14:30:33;5.72;;;2.00;;
75129;SDS011;63703;44.716;37.846;2023-04-25T14:32:59;6.72;;;2.65;;
75129;SDS011;63703;44.716;37.846;2023-04-25T14:35:25;5.10;;;1.73;;
75129;SDS011;63703;44.716;37.846;2023-04-25T14:37:51;6.38;;;2.92;;
75129;SDS011;63703;44.716;37.846;2023-04-25T14:40:18;4.63;;;1.90;;
75129;SDS011;63703;44.716;37.846;2023-04-25T14:42:48;9.52;;;2.53;;
75129;SDS011;63703;44.716;37.846;2023-04-25T14:45:16;6.57;;;1.88;;
75129;SDS011;63703;44.716;37.846;2023-04-25T14:47:42;7.20;;;2.25;;
75129;SDS011;63703;44.716;37.846;2023-04-25T14:57:33;4.85;;;1.65;;
75129;SDS011;63703;44.716;37.846;2023-04-25T14:59:59;6.32;;;2.17;;
75129;SDS011;63703;44.716;37.846;2023-04-25T15:02:26;4.10;;;1.30;;
75129;SDS011;63703;44.716;37.846;2023-04-25T15:04:53;7.72;;;1.58;;